createdAt,value
2022-11-07T00:00:13.104Z,1.02
2022-11-07T00:03:01.511Z,1.17
2022-11-07T00:05:38.276Z,1.39
2022-11-07T00:11:12.614Z,1.79
2022-11-07T00:16:54.715Z,1.96
2022-11-07T00:20:05.552Z,2.05
2022-11-07T00:22:50.232Z,2.19
2022-11-07T00:25:39.680Z,2.27
2022-11-07T00:28:29.446Z,2.26
2022-11-07T00:31:18.281Z,2.21
2022-11-07T00:34:12.338Z,2.29
2022-11-07T00:40:08.826Z,2.51
2022-11-07T00:42:56.260Z,2.72
2022-11-07T00:45:34.710Z,2.90
2022-11-07T00:48:19.773Z,3.07
2022-11-07T00:51:06.081Z,3.11
2022-11-07T00:53:45.391Z,3.20
2022-11-07T00:56:32.713Z,3.37
2022-11-07T00:59:18.255Z,3.63
2022-11-07T01:02:13.116Z,3.69
2022-11-07T01:05:23.059Z,3.71
2022-11-07T01:08:14.217Z,3.78
2022-11-07T01:10:56.627Z,3.93
2022-11-07T01:13:37.711Z,4.00
2022-11-07T01:16:23.536Z,4.22
2022-11-07T01:19:14.964Z,4.39
2022-11-07T01:22:03.385Z,4.59
2022-11-07T01:24:53.137Z,4.59
2022-11-07T01:28:00.353Z,4.80
2022-11-07T01:30:46.829Z,5.17
2022-11-07T01:33:36.272Z,5.46
2022-11-07T01:36:20.447Z,5.58
2022-11-07T01:39:11.251Z,5.48
2022-11-07T01:42:09.234Z,5.46
2022-11-07T01:45:05.065Z,5.21
2022-11-07T01:47:50.962Z,5.05
2022-11-07T01:50:31.607Z,4.96
2022-11-07T01:53:22.185Z,4.95
2022-11-07T01:59:12.699Z,5.16
2022-11-07T02:01:59.698Z,5.44
2022-11-07T02:04:40.551Z,5.63
2022-11-07T02:07:25.926Z,5.73
2022-11-07T02:10:26.851Z,5.95
2022-11-07T02:13:52.215Z,5.97
2022-11-07T02:16:44.842Z,5.59
2022-11-07T02:22:41.887Z,6.02
2022-11-07T02:25:39.211Z,5.72
2022-11-07T02:28:28.437Z,5.52
2022-11-07T02:31:27.376Z,5.35
2022-11-07T02:34:24.535Z,5.26
2022-11-07T02:37:13.149Z,5.18
2022-11-07T02:40:09.446Z,5.17
2022-11-07T02:46:20.971Z,4.99
2022-11-07T02:48:58.587Z,4.83
2022-11-07T02:57:37.207Z,4.96
2022-11-07T03:00:36.430Z,5.00
2022-11-07T03:03:16.183Z,5.01
2022-11-07T03:05:54.284Z,4.30
2022-11-07T03:08:41.558Z,4.92
2022-11-07T03:11:23.579Z,5.04
2022-11-07T03:14:06.058Z,5.07
2022-11-07T03:17:08.368Z,5.14
2022-11-07T03:19:54.995Z,5.33
2022-11-07T03:22:41.619Z,5.51
2022-11-07T05:47:37.694Z,5.05
2022-11-07T05:53:24.421Z,4.93
2022-11-07T05:56:14.059Z,4.89
2022-11-07T05:59:02.352Z,4.85
2022-11-07T06:02:06.511Z,4.89
2022-11-07T06:04:56.422Z,4.89
2022-11-07T06:07:53.281Z,4.85
2022-11-07T06:10:47.954Z,4.83
2022-11-07T06:13:31.731Z,4.59
2022-11-07T06:16:13.011Z,4.82
2022-11-07T06:19:07.720Z,4.83
2022-11-07T06:21:46.070Z,4.81
2022-11-07T06:24:29.050Z,4.78
2022-11-07T06:27:30.800Z,4.76
2022-11-07T06:30:19.256Z,4.71
2022-11-07T06:32:57.328Z,4.71
2022-11-07T06:36:00.693Z,4.64
2022-11-07T06:38:46.593Z,4.59
2022-11-07T06:41:25.923Z,4.57
2022-11-07T06:44:13.635Z,4.47
2022-11-07T06:47:05.226Z,4.44
2022-11-07T06:49:53.425Z,4.36
2022-11-07T06:53:02.754Z,4.27
2022-11-07T06:55:55.619Z,4.11
2022-11-07T06:58:35.817Z,4.00
2022-11-07T07:01:38.967Z,3.86
2022-11-07T07:04:19.300Z,3.78
2022-11-07T07:07:10.922Z,3.64
2022-11-07T07:11:04.266Z,3.56
2022-11-07T07:13:58.209Z,3.48
2022-11-07T07:17:02.617Z,3.40
2022-11-07T07:19:40.430Z,3.36
2022-11-07T07:22:25.323Z,3.27
2022-11-07T07:25:20.580Z,3.18
2022-11-07T07:28:07.922Z,3.16
2022-11-07T07:31:13.643Z,3.02
2022-11-07T07:34:29.990Z,2.83
2022-11-07T07:37:41.611Z,2.70
2022-11-07T07:40:25.071Z,2.61
2022-11-07T07:43:17.379Z,2.57
2022-11-07T07:46:10.153Z,2.51
2022-11-07T07:48:57.050Z,2.40
2022-11-07T07:54:37.108Z,2.27
2022-11-07T07:57:32.851Z,2.23
2022-11-07T08:00:16.196Z,2.15
2022-11-07T08:03:08.543Z,2.13
2022-11-07T08:06:07.189Z,2.06
2022-11-07T08:08:57.464Z,1.97
2022-11-07T08:11:39.624Z,1.94
2022-11-07T08:14:33.443Z,1.93
2022-11-07T08:17:23.519Z,1.82
2022-11-07T08:24:09.658Z,1.84
2022-11-07T08:26:47.412Z,1.52
2022-11-07T08:32:38.673Z,1.97
2022-11-07T08:38:08.747Z,2.08
2022-11-07T08:41:19.661Z,2.10
2022-11-07T08:44:16.254Z,2.11
2022-11-07T08:47:05.838Z,2.06
2022-11-07T08:49:58.596Z,1.93
2022-11-07T08:52:35.457Z,2.32
2022-11-07T08:55:35.330Z,2.35
2022-11-07T08:58:30.580Z,2.32
2022-11-07T09:01:22.815Z,2.23
2022-11-07T09:04:21.004Z,2.32
2022-11-07T09:07:19.147Z,2.32
2022-11-07T09:10:10.415Z,2.30
2022-11-07T09:12:57.512Z,2.26
2022-11-07T09:15:55.312Z,2.27
2022-11-07T09:18:38.543Z,2.24
2022-11-07T09:21:27.381Z,1.49
2022-11-07T09:24:08.555Z,2.24
2022-11-07T09:26:50.744Z,2.11
2022-11-07T09:29:38.174Z,2.15
2022-11-07T09:35:17.731Z,2.07
2022-11-07T09:38:05.439Z,2.09
2022-11-07T09:41:06.667Z,2.02
2022-11-07T09:44:09.594Z,2.13
2022-11-07T09:47:03.782Z,2.12
2022-11-07T09:49:50.121Z,2.10
2022-11-07T09:52:47.189Z,2.08
2022-11-07T09:55:36.481Z,2.04
2022-11-07T09:58:36.289Z,1.93
2022-11-07T10:01:30.146Z,1.76
2022-11-07T10:04:25.278Z,1.66
2022-11-07T10:07:26.450Z,1.69
2022-11-07T10:10:14.153Z,1.65
2022-11-07T10:13:44.868Z,1.50
2022-11-07T10:16:53.815Z,1.21
2022-11-07T10:20:24.756Z,1.09
2022-11-07T10:26:54.451Z,0.84
2022-11-07T10:29:47.072Z,0.46
2022-11-07T10:32:51.401Z,0.62
2022-11-07T10:35:43.547Z,0.53
2022-11-07T10:38:32.481Z,0.50
2022-11-07T10:41:17.907Z,0.31
2022-11-07T10:44:04.252Z,0.36
2022-11-07T10:46:53.332Z,0.17
2022-11-07T10:49:50.289Z,0.07
2022-11-07T10:52:30.620Z,0.01
2022-11-07T10:55:42.283Z,-0.01
2022-11-07T10:58:29.184Z,-0.13
2022-11-07T11:01:08.211Z,-0.09
2022-11-07T11:04:05.199Z,-0.15
2022-11-07T11:06:46.661Z,-0.69
2022-11-07T11:12:25.718Z,-0.16
2022-11-07T11:15:39.876Z,-0.17
2022-11-07T11:18:31.342Z,-0.31
2022-11-07T11:25:14.905Z,-0.29
2022-11-07T11:28:13.690Z,-0.33
2022-11-07T11:31:45.903Z,-0.28
2022-11-07T11:40:37.511Z,-0.28
2022-11-07T11:43:25.281Z,-0.57
2022-11-07T11:46:13.629Z,-0.52
2022-11-07T11:48:59.091Z,-0.38
2022-11-07T11:51:51.112Z,-0.34
2022-11-07T11:55:12.740Z,-0.43
2022-11-07T11:58:17.324Z,-0.49
2022-11-07T12:01:17.299Z,-0.75
2022-11-07T12:04:07.947Z,-0.44
2022-11-07T12:07:19.702Z,-0.39
2022-11-07T12:10:21.728Z,-0.55
2022-11-07T12:13:31.785Z,-0.44
2022-11-07T12:16:29.889Z,-0.59
2022-11-07T12:19:19.626Z,-0.64
2022-11-07T12:22:22.369Z,-0.76
2022-11-07T12:25:14.290Z,-0.94
2022-11-07T12:28:09.555Z,-1.12
2022-11-07T12:31:02.254Z,-1.02
2022-11-07T12:34:05.286Z,-1.15
2022-11-07T12:36:56.577Z,-1.02
2022-11-07T12:40:17.746Z,-0.98
2022-11-07T12:43:12.317Z,-0.92
2022-11-07T12:46:06.434Z,-0.91
2022-11-07T12:49:07.467Z,-0.76
2022-11-07T12:52:11.172Z,-0.52
2022-11-07T12:54:56.385Z,-0.29
2022-11-07T12:57:37.783Z,-0.37
2022-11-07T13:00:31.725Z,-0.48
2022-11-07T13:03:32.223Z,-0.47
2022-11-07T13:06:39.923Z,-0.52
2022-11-07T13:09:32.574Z,-0.64
2022-11-07T13:12:37.983Z,-0.74
2022-11-07T13:15:31.879Z,-0.69
2022-11-07T13:18:32.821Z,-0.79
2022-11-07T13:22:01.665Z,-0.83
2022-11-07T13:25:06.193Z,-0.83
2022-11-07T13:27:59.381Z,-1.02
2022-11-07T13:31:07.651Z,-1.01
2022-11-07T13:33:54.067Z,-1.35
2022-11-07T13:36:51.610Z,-1.15
2022-11-07T13:39:40.080Z,-1.20
2022-11-07T13:42:32.981Z,-1.23
2022-11-07T13:45:38.483Z,-1.25
2022-11-07T13:48:27.224Z,-1.29
2022-11-07T13:51:24.253Z,-1.35
2022-11-07T13:54:12.859Z,-1.36
2022-11-07T13:57:00.859Z,-1.26
2022-11-07T14:00:01.542Z,-1.35
2022-11-07T14:02:38.809Z,-1.66
2022-11-07T14:08:11.979Z,-2.19
2022-11-07T14:10:57.442Z,-2.03
2022-11-07T14:13:44.987Z,-1.47
2022-11-07T14:16:39.458Z,-1.55
2022-11-07T14:19:37.291Z,-1.57
2022-11-07T14:22:35.969Z,-1.43
2022-11-07T14:25:38.963Z,-1.46
2022-11-07T14:28:26.125Z,-1.56
2022-11-07T14:31:16.184Z,-1.46
2022-11-07T14:34:07.819Z,-1.44
2022-11-07T14:36:45.049Z,-1.43
2022-11-07T14:39:40.131Z,-1.41
2022-11-07T14:42:42.552Z,-1.41
2022-11-07T14:45:46.855Z,-1.37
2022-11-07T14:48:33.005Z,-1.37
2022-11-07T14:51:16.412Z,-1.32
2022-11-07T14:54:21.546Z,-2.09
2022-11-07T14:57:17.280Z,-1.33
2022-11-07T15:00:12.001Z,-1.35
2022-11-07T15:02:58.115Z,-1.37
2022-11-07T15:05:42.735Z,-1.32
2022-11-07T15:08:38.984Z,-1.32
2022-11-07T15:11:36.558Z,-1.43
2022-11-07T15:17:37.750Z,-1.32
2022-11-07T15:20:32.685Z,-1.29
2022-11-07T15:23:38.119Z,-1.58
2022-11-07T15:30:16.512Z,-1.28
2022-11-07T15:32:55.536Z,-1.25
2022-11-07T15:35:44.176Z,-1.81
2022-11-07T15:38:27.343Z,-1.16
2022-11-07T15:41:22.578Z,-1.17
2022-11-07T15:44:07.615Z,-1.18
2022-11-07T15:47:11.757Z,-1.21
2022-11-07T15:49:59.982Z,-1.21
2022-11-07T15:52:38.785Z,-1.26
2022-11-07T15:55:30.896Z,-1.46
2022-11-07T15:58:09.816Z,-1.44
2022-11-07T16:01:13.433Z,-1.42
2022-11-07T16:04:08.302Z,-1.27
2022-11-07T16:06:53.984Z,-2.01
2022-11-07T16:09:33.846Z,-1.16
2022-11-07T16:12:17.942Z,-1.10
2022-11-07T16:14:54.342Z,-1.15
2022-11-07T16:17:50.672Z,-1.19
2022-11-07T16:20:46.450Z,-1.15
2022-11-07T16:23:31.651Z,-1.20
2022-11-07T16:26:24.689Z,-1.07
2022-11-07T16:29:04.697Z,-1.04
2022-11-07T16:32:16.438Z,-0.99
2022-11-07T16:38:05.493Z,-1.14
2022-11-07T16:40:52.370Z,-1.23
2022-11-07T16:43:38.481Z,-1.44
2022-11-07T16:46:42.073Z,-1.56
2022-11-07T16:49:22.800Z,-1.57
2022-11-07T16:52:10.177Z,-1.70
2022-11-07T16:55:03.216Z,-1.90
2022-11-07T16:58:03.535Z,-2.11
2022-11-07T17:01:04.577Z,-2.32
2022-11-07T17:03:43.648Z,-2.38
2022-11-07T17:06:41.200Z,-2.33
2022-11-07T17:13:07.814Z,-2.30
2022-11-07T17:16:26.987Z,-2.30
2022-11-07T17:19:08.729Z,-2.27
2022-11-07T17:22:04.186Z,-2.33
2022-11-07T17:24:55.030Z,-2.19
2022-11-07T17:27:46.869Z,-2.15
2022-11-07T17:31:10.626Z,-2.18
2022-11-07T17:33:47.499Z,-2.08
2022-11-07T17:36:42.513Z,-1.96
2022-11-07T17:39:24.043Z,-2.03
2022-11-07T17:42:08.464Z,-1.98
2022-11-07T17:44:50.616Z,-1.99
2022-11-07T17:47:49.142Z,-2.10
2022-11-07T17:50:42.145Z,-2.02
2022-11-07T17:53:22.401Z,-2.07
2022-11-07T17:56:04.524Z,-2.02
2022-11-07T17:58:39.949Z,-2.06
2022-11-07T18:04:37.268Z,-2.18
2022-11-07T18:07:21.975Z,-2.25
2022-11-07T18:10:25.912Z,-2.32
2022-11-07T18:13:04.703Z,-2.46
2022-11-07T18:15:58.789Z,-2.45
2022-11-07T18:18:52.056Z,-2.37
2022-11-07T18:21:38.688Z,-2.36
2022-11-07T18:24:24.388Z,-2.44
2022-11-07T18:27:10.255Z,-2.49
2022-11-07T18:29:51.416Z,-2.56
2022-11-07T18:32:35.491Z,-2.63
2022-11-07T18:35:13.824Z,-2.65
2022-11-07T18:38:18.381Z,-2.57
2022-11-07T18:41:05.001Z,-2.82
2022-11-07T18:43:53.629Z,-2.47
2022-11-07T18:46:31.627Z,-2.43
2022-11-07T18:49:25.385Z,-2.44
2022-11-07T18:52:28.681Z,-2.57
2022-11-07T18:55:12.665Z,-2.55
2022-11-07T18:58:24.428Z,-2.65
2022-11-07T19:01:09.980Z,-2.78
2022-11-07T19:03:52.171Z,-2.85
2022-11-07T19:06:44.240Z,-2.83
2022-11-07T19:13:02.809Z,-2.75
2022-11-07T19:16:02.299Z,-2.87
2022-11-07T19:18:45.306Z,-2.84
2022-11-07T19:21:30.911Z,-3.05
2022-11-07T19:24:28.067Z,-2.97
2022-11-07T19:27:25.326Z,-2.97
2022-11-07T19:30:26.964Z,-3.00
2022-11-07T19:33:20.291Z,-3.03
2022-11-07T19:36:25.581Z,-2.98
2022-11-07T19:39:00.541Z,-3.04
2022-11-07T19:41:41.994Z,-3.03
2022-11-07T19:44:20.138Z,-3.06
2022-11-07T19:47:22.381Z,-3.07
2022-11-07T19:50:08.726Z,-3.10
2022-11-07T19:53:16.308Z,-3.16
2022-11-07T19:56:01.581Z,-3.08
2022-11-07T19:58:44.618Z,-3.03
2022-11-07T20:01:31.854Z,-2.96
2022-11-07T20:04:23.165Z,-2.92
2022-11-07T20:07:11.825Z,-2.80
2022-11-07T20:12:53.528Z,-2.77
2022-11-07T20:15:47.950Z,-2.88
2022-11-07T20:18:25.779Z,-2.96
2022-11-07T20:21:26.554Z,-3.08
2022-11-07T20:24:12.431Z,-2.98
2022-11-07T20:26:55.378Z,-2.93
2022-11-07T20:29:59.448Z,-2.97
2022-11-07T20:32:55.017Z,-2.89
2022-11-07T20:35:57.290Z,-2.89
2022-11-07T20:38:39.287Z,-2.90
2022-11-07T20:41:35.121Z,-2.99
2022-11-07T20:44:14.107Z,-3.27
2022-11-07T20:47:07.427Z,-2.99
2022-11-07T20:50:02.787Z,-3.01
2022-11-07T20:52:59.972Z,-3.01
2022-11-07T20:55:49.402Z,-3.00
2022-11-07T20:58:48.312Z,-2.81
2022-11-07T21:01:51.576Z,-2.85
2022-11-07T21:04:56.375Z,-2.84
2022-11-07T21:07:47.218Z,-2.84
2022-11-07T21:10:34.923Z,-2.80
2022-11-07T21:13:19.516Z,-2.85
2022-11-07T21:16:14.638Z,-2.89
2022-11-07T21:19:01.113Z,-2.93
2022-11-07T21:21:38.949Z,-3.01
2022-11-07T21:24:44.651Z,-2.94
2022-11-07T21:27:37.737Z,-2.80
2022-11-07T21:30:24.176Z,-2.81
2022-11-07T21:33:03.513Z,-2.85
2022-11-07T21:35:56.167Z,-2.86
2022-11-07T21:38:33.878Z,-2.87
2022-11-07T21:41:20.218Z,-2.73
2022-11-07T21:43:59.521Z,-2.61
2022-11-07T21:46:45.744Z,-2.56
2022-11-07T21:49:24.782Z,-2.55
2022-11-07T21:52:18.451Z,-2.53
2022-11-07T21:55:07.776Z,-2.50
2022-11-07T21:57:59.888Z,-2.40
2022-11-07T22:00:57.317Z,-2.24
2022-11-07T22:04:06.171Z,-2.04
2022-11-07T22:06:41.453Z,-1.97
2022-11-07T22:09:31.181Z,-1.84
2022-11-07T22:12:20.506Z,-1.73
2022-11-07T22:15:01.756Z,-1.69
2022-11-07T22:17:54.873Z,-1.68
2022-11-07T22:20:44.902Z,-1.57
2022-11-07T22:23:33.088Z,-1.45
2022-11-07T22:26:17.749Z,-1.48
2022-11-07T22:29:00.648Z,-1.59
2022-11-07T22:31:58.043Z,-1.34
2022-11-07T22:34:52.954Z,-1.16
2022-11-07T22:37:58.906Z,-1.14
2022-11-07T22:40:45.318Z,-1.13
2022-11-07T22:43:43.694Z,-1.00
2022-11-07T22:46:24.170Z,-0.96
2022-11-07T22:49:14.886Z,-0.74
2022-11-07T22:51:55.714Z,-0.61
2022-11-07T22:54:38.097Z,-0.50
2022-11-07T22:57:20.533Z,-0.41
2022-11-07T23:00:20.928Z,-0.35
2022-11-07T23:03:02.599Z,-0.17
2022-11-07T23:05:48.903Z,-0.02
2022-11-07T23:08:34.849Z,0.15
2022-11-07T23:14:14.558Z,0.36
2022-11-07T23:17:04.944Z,-0.23
2022-11-07T23:19:42.465Z,0.62
2022-11-07T23:22:31.218Z,0.71
2022-11-07T23:25:16.345Z,0.84
2022-11-07T23:27:52.533Z,1.01
2022-11-07T23:30:53.946Z,1.18
2022-11-07T23:33:34.271Z,1.42
2022-11-07T23:36:26.426Z,1.64
2022-11-07T23:39:05.158Z,1.86
2022-11-07T23:41:51.449Z,1.97
2022-11-07T23:44:46.878Z,1.84
2022-11-07T23:47:40.989Z,2.10
2022-11-07T23:50:37.854Z,2.15
2022-11-07T23:53:34.908Z,2.20
2022-11-07T23:56:15.505Z,2.24
2022-11-07T23:59:12.358Z,2.29
